sensor_id;sensor_type;location;lat;lon;timestamp;temperature;humidity
40996;DHT22;26723;57.478;12.066;2023-09-19T00:01:27;18.20;99.90
40996;DHT22;26723;57.478;12.066;2023-09-19T00:04:37;18.20;99.90
40996;DHT22;26723;57.478;12.066;2023-09-19T00:07:47;18.20;99.90
40996;DHT22;26723;57.478;12.066;2023-09-19T00:10:55;18.20;99.90
40996;DHT22;26723;57.478;12.066;2023-09-19T00:14:07;18.20;99.90
40996;DHT22;26723;57.478;12.066;2023-09-19T00:17:16;18.20;99.90
40996;DHT22;26723;57.478;12.066;2023-09-19T00:20:24;18.10;99.90
40996;DHT22;26723;57.478;12.066;2023-09-19T00:23:33;18.10;99.90
40996;DHT22;26723;57.478;12.066;2023-09-19T00:26:41;18.10;99.90
40996;DHT22;26723;57.478;12.066;2023-09-19T00:29:52;18.10;99.90
40996;DHT22;26723;57.478;12.066;2023-09-19T00:33:01;18.10;99.90
40996;DHT22;26723;57.478;12.066;2023-09-19T00:36:13;18.00;99.90
40996;DHT22;26723;57.478;12.066;2023-09-19T00:39:22;18.00;99.90
40996;DHT22;26723;57.478;12.066;2023-09-19T00:42:33;17.90;99.90
40996;DHT22;26723;57.478;12.066;2023-09-19T00:45:48;18.00;99.90
40996;DHT22;26723;57.478;12.066;2023-09-19T00:48:59;17.90;99.90
40996;DHT22;26723;57.478;12.066;2023-09-19T00:52:08;17.90;99.90
40996;DHT22;26723;57.478;12.066;2023-09-19T00:55:18;17.90;99.90
40996;DHT22;26723;57.478;12.066;2023-09-19T00:58:27;17.90;99.90
40996;DHT22;26723;57.478;12.066;2023-09-19T01:01:42;17.80;99.90
40996;DHT22;26723;57.478;12.066;2023-09-19T01:04:53;17.90;99.90
40996;DHT22;26723;57.478;12.066;2023-09-19T01:08:03;17.90;99.90
40996;DHT22;26723;57.478;12.066;2023-09-19T01:11:16;17.90;99.90
40996;DHT22;26723;57.478;12.066;2023-09-19T01:14:34;17.90;99.90
40996;DHT22;26723;57.478;12.066;2023-09-19T01:17:53;17.90;99.90
40996;DHT22;26723;57.478;12.066;2023-09-19T01:21:10;17.90;99.90
40996;DHT22;26723;57.478;12.066;2023-09-19T01:24:42;18.00;99.90
40996;DHT22;26723;57.478;12.066;2023-09-19T01:28:13;18.00;99.90
40996;DHT22;26723;57.478;12.066;2023-09-19T01:31:28;18.00;99.90
40996;DHT22;26723;57.478;12.066;2023-09-19T01:34:45;18.00;99.90
40996;DHT22;26723;57.478;12.066;2023-09-19T01:37:55;18.00;99.90
40996;DHT22;26723;57.478;12.066;2023-09-19T01:41:11;18.00;99.90
40996;DHT22;26723;57.478;12.066;2023-09-19T01:44:36;18.00;99.90
40996;DHT22;26723;57.478;12.066;2023-09-19T01:47:52;18.00;99.90
40996;DHT22;26723;57.478;12.066;2023-09-19T01:51:06;18.00;99.90
40996;DHT22;26723;57.478;12.066;2023-09-19T01:54:21;18.00;99.90
40996;DHT22;26723;57.478;12.066;2023-09-19T01:57:35;18.10;99.90
40996;DHT22;26723;57.478;12.066;2023-09-19T02:00:47;18.10;99.90
40996;DHT22;26723;57.478;12.066;2023-09-19T02:03:58;18.20;99.90
40996;DHT22;26723;57.478;12.066;2023-09-19T02:07:07;18.20;99.90
40996;DHT22;26723;57.478;12.066;2023-09-19T02:10:16;18.20;99.90
40996;DHT22;26723;57.478;12.066;2023-09-19T02:13:26;18.20;99.90
40996;DHT22;26723;57.478;12.066;2023-09-19T02:16:35;18.30;99.90
40996;DHT22;26723;57.478;12.066;2023-09-19T02:19:46;18.30;99.90
40996;DHT22;26723;57.478;12.066;2023-09-19T02:22:54;18.40;99.90
40996;DHT22;26723;57.478;12.066;2023-09-19T02:26:03;18.40;99.90
40996;DHT22;26723;57.478;12.066;2023-09-19T02:29:12;18.40;99.90
40996;DHT22;26723;57.478;12.066;2023-09-19T02:32:22;18.40;99.90
40996;DHT22;26723;57.478;12.066;2023-09-19T02:35:32;18.40;99.90
40996;DHT22;26723;57.478;12.066;2023-09-19T02:38:43;18.40;99.90
40996;DHT22;26723;57.478;12.066;2023-09-19T02:41:52;18.40;99.90
40996;DHT22;26723;57.478;12.066;2023-09-19T02:45:00;18.40;99.90
40996;DHT22;26723;57.478;12.066;2023-09-19T02:48:13;18.40;99.90
40996;DHT22;26723;57.478;12.066;2023-09-19T02:51:24;18.40;99.90
40996;DHT22;26723;57.478;12.066;2023-09-19T02:54:33;18.40;99.90
40996;DHT22;26723;57.478;12.066;2023-09-19T02:57:45;18.40;99.90
40996;DHT22;26723;57.478;12.066;2023-09-19T03:00:54;18.40;99.90
40996;DHT22;26723;57.478;12.066;2023-09-19T03:04:04;18.30;99.90
40996;DHT22;26723;57.478;12.066;2023-09-19T03:07:16;18.30;99.90
40996;DHT22;26723;57.478;12.066;2023-09-19T03:10:25;18.30;99.90
40996;DHT22;26723;57.478;12.066;2023-09-19T03:13:36;18.20;99.90
40996;DHT22;26723;57.478;12.066;2023-09-19T03:16:46;18.20;99.90
40996;DHT22;26723;57.478;12.066;2023-09-19T03:19:55;18.20;99.90
40996;DHT22;26723;57.478;12.066;2023-09-19T03:23:06;18.10;99.90
40996;DHT22;26723;57.478;12.066;2023-09-19T03:26:15;18.10;99.90
40996;DHT22;26723;57.478;12.066;2023-09-19T03:29:25;18.10;99.90
40996;DHT22;26723;57.478;12.066;2023-09-19T03:32:34;18.10;99.90
40996;DHT22;26723;57.478;12.066;2023-09-19T03:35:43;18.10;99.90
40996;DHT22;26723;57.478;12.066;2023-09-19T03:39:02;18.00;99.90
40996;DHT22;26723;57.478;12.066;2023-09-19T03:42:12;17.90;99.90
40996;DHT22;26723;57.478;12.066;2023-09-19T03:45:21;17.90;99.90
40996;DHT22;26723;57.478;12.066;2023-09-19T03:48:31;17.90;99.90
40996;DHT22;26723;57.478;12.066;2023-09-19T03:51:41;17.90;99.90
40996;DHT22;26723;57.478;12.066;2023-09-19T03:54:51;18.00;99.90
40996;DHT22;26723;57.478;12.066;2023-09-19T03:57:59;18.00;99.90
40996;DHT22;26723;57.478;12.066;2023-09-19T04:01:08;17.90;99.90
40996;DHT22;26723;57.478;12.066;2023-09-19T04:04:16;17.90;99.90
40996;DHT22;26723;57.478;12.066;2023-09-19T04:07:26;17.90;99.90
40996;DHT22;26723;57.478;12.066;2023-09-19T04:10:37;17.90;99.90
40996;DHT22;26723;57.478;12.066;2023-09-19T04:13:46;17.90;99.90
40996;DHT22;26723;57.478;12.066;2023-09-19T04:16:55;17.90;99.90
40996;DHT22;26723;57.478;12.066;2023-09-19T04:20:05;17.90;99.90
40996;DHT22;26723;57.478;12.066;2023-09-19T04:23:14;17.80;99.90
40996;DHT22;26723;57.478;12.066;2023-09-19T04:26:25;17.70;99.90
40996;DHT22;26723;57.478;12.066;2023-09-19T04:29:33;17.70;99.90
40996;DHT22;26723;57.478;12.066;2023-09-19T04:32:42;17.60;99.90
40996;DHT22;26723;57.478;12.066;2023-09-19T04:35:51;17.50;99.90
40996;DHT22;26723;57.478;12.066;2023-09-19T04:39:00;17.40;99.90
40996;DHT22;26723;57.478;12.066;2023-09-19T04:42:14;17.40;99.90
40996;DHT22;26723;57.478;12.066;2023-09-19T04:45:23;17.20;99.90
40996;DHT22;26723;57.478;12.066;2023-09-19T04:48:31;17.20;99.90
40996;DHT22;26723;57.478;12.066;2023-09-19T04:51:41;17.10;99.90
40996;DHT22;26723;57.478;12.066;2023-09-19T04:54:50;17.10;99.90
40996;DHT22;26723;57.478;12.066;2023-09-19T04:58:00;17.10;99.90
40996;DHT22;26723;57.478;12.066;2023-09-19T05:01:09;17.00;99.90
40996;DHT22;26723;57.478;12.066;2023-09-19T05:04:19;16.90;99.90
40996;DHT22;26723;57.478;12.066;2023-09-19T05:07:27;16.90;99.90
40996;DHT22;26723;57.478;12.066;2023-09-19T05:10:36;16.80;99.90
40996;DHT22;26723;57.478;12.066;2023-09-19T05:13:47;16.80;99.90
40996;DHT22;26723;57.478;12.066;2023-09-19T05:16:57;16.70;99.90
40996;DHT22;26723;57.478;12.066;2023-09-19T05:20:07;16.60;99.90
40996;DHT22;26723;57.478;12.066;2023-09-19T05:23:19;16.60;99.90
40996;DHT22;26723;57.478;12.066;2023-09-19T05:26:28;16.60;99.90
40996;DHT22;26723;57.478;12.066;2023-09-19T05:29:39;16.60;99.90
40996;DHT22;26723;57.478;12.066;2023-09-19T05:32:49;16.50;99.90
40996;DHT22;26723;57.478;12.066;2023-09-19T05:35:58;16.50;99.90
40996;DHT22;26723;57.478;12.066;2023-09-19T05:39:07;16.50;99.90
40996;DHT22;26723;57.478;12.066;2023-09-19T05:42:16;16.50;99.90
40996;DHT22;26723;57.478;12.066;2023-09-19T05:45:26;16.50;99.90
40996;DHT22;26723;57.478;12.066;2023-09-19T05:48:35;16.50;99.90
40996;DHT22;26723;57.478;12.066;2023-09-19T05:51:45;16.40;99.90
40996;DHT22;26723;57.478;12.066;2023-09-19T05:54:54;16.30;99.90
40996;DHT22;26723;57.478;12.066;2023-09-19T05:58:03;16.20;99.90
40996;DHT22;26723;57.478;12.066;2023-09-19T06:01:13;16.20;99.90
40996;DHT22;26723;57.478;12.066;2023-09-19T06:04:22;16.10;99.90
40996;DHT22;26723;57.478;12.066;2023-09-19T06:07:31;16.10;99.90
40996;DHT22;26723;57.478;12.066;2023-09-19T06:10:43;16.10;99.90
40996;DHT22;26723;57.478;12.066;2023-09-19T06:13:54;16.00;99.90
40996;DHT22;26723;57.478;12.066;2023-09-19T06:17:04;16.10;99.90
40996;DHT22;26723;57.478;12.066;2023-09-19T06:20:13;16.00;99.90
40996;DHT22;26723;57.478;12.066;2023-09-19T06:23:22;16.00;99.90
40996;DHT22;26723;57.478;12.066;2023-09-19T06:26:33;16.00;99.90
40996;DHT22;26723;57.478;12.066;2023-09-19T06:29:41;16.20;99.90
40996;DHT22;26723;57.478;12.066;2023-09-19T06:32:55;16.30;99.90
40996;DHT22;26723;57.478;12.066;2023-09-19T06:36:04;16.50;99.90
40996;DHT22;26723;57.478;12.066;2023-09-19T06:39:13;16.80;99.90
40996;DHT22;26723;57.478;12.066;2023-09-19T06:42:22;16.80;99.90
40996;DHT22;26723;57.478;12.066;2023-09-19T06:45:33;17.20;99.90
40996;DHT22;26723;57.478;12.066;2023-09-19T06:48:43;16.80;99.90
40996;DHT22;26723;57.478;12.066;2023-09-19T06:51:54;16.70;99.90
40996;DHT22;26723;57.478;12.066;2023-09-19T06:55:04;16.70;99.90
40996;DHT22;26723;57.478;12.066;2023-09-19T06:58:13;17.40;99.90
40996;DHT22;26723;57.478;12.066;2023-09-19T07:01:23;17.40;99.90
40996;DHT22;26723;57.478;12.066;2023-09-19T07:04:34;17.20;99.90
40996;DHT22;26723;57.478;12.066;2023-09-19T07:07:42;17.00;99.90
40996;DHT22;26723;57.478;12.066;2023-09-19T07:10:52;16.80;99.90
40996;DHT22;26723;57.478;12.066;2023-09-19T07:14:01;18.00;99.90
40996;DHT22;26723;57.478;12.066;2023-09-19T07:17:10;20.30;99.90
40996;DHT22;26723;57.478;12.066;2023-09-19T07:20:21;19.60;99.90
40996;DHT22;26723;57.478;12.066;2023-09-19T07:23:30;18.60;99.90
40996;DHT22;26723;57.478;12.066;2023-09-19T07:26:42;18.30;99.90
40996;DHT22;26723;57.478;12.066;2023-09-19T07:29:50;19.60;99.90
40996;DHT22;26723;57.478;12.066;2023-09-19T07:33:01;23.30;99.90
40996;DHT22;26723;57.478;12.066;2023-09-19T07:36:11;22.60;99.90
40996;DHT22;26723;57.478;12.066;2023-09-19T07:39:21;20.80;99.90
40996;DHT22;26723;57.478;12.066;2023-09-19T07:42:29;22.60;99.90
40996;DHT22;26723;57.478;12.066;2023-09-19T07:45:39;22.70;99.90
40996;DHT22;26723;57.478;12.066;2023-09-19T07:48:47;21.70;99.90
40996;DHT22;26723;57.478;12.066;2023-09-19T07:51:57;20.50;99.90
40996;DHT22;26723;57.478;12.066;2023-09-19T07:55:06;20.80;99.90
40996;DHT22;26723;57.478;12.066;2023-09-19T07:58:17;20.30;99.90
40996;DHT22;26723;57.478;12.066;2023-09-19T08:01:25;21.00;99.90
40996;DHT22;26723;57.478;12.066;2023-09-19T08:04:35;19.20;99.90
40996;DHT22;26723;57.478;12.066;2023-09-19T08:07:45;18.30;99.90
40996;DHT22;26723;57.478;12.066;2023-09-19T08:10:56;17.50;99.90
40996;DHT22;26723;57.478;12.066;2023-09-19T08:14:05;17.20;99.90
40996;DHT22;26723;57.478;12.066;2023-09-19T08:17:14;17.00;99.90
40996;DHT22;26723;57.478;12.066;2023-09-19T08:20:23;17.20;99.90
40996;DHT22;26723;57.478;12.066;2023-09-19T08:23:33;17.40;99.90
40996;DHT22;26723;57.478;12.066;2023-09-19T08:26:42;17.70;99.90
40996;DHT22;26723;57.478;12.066;2023-09-19T08:29:52;18.30;99.90
40996;DHT22;26723;57.478;12.066;2023-09-19T08:33:01;18.00;99.90
40996;DHT22;26723;57.478;12.066;2023-09-19T08:36:11;18.80;99.90
40996;DHT22;26723;57.478;12.066;2023-09-19T08:39:22;19.20;99.90
40996;DHT22;26723;57.478;12.066;2023-09-19T08:42:31;19.30;99.90
40996;DHT22;26723;57.478;12.066;2023-09-19T08:45:39;20.50;99.90
40996;DHT22;26723;57.478;12.066;2023-09-19T08:48:57;20.50;99.90
40996;DHT22;26723;57.478;12.066;2023-09-19T08:52:19;19.30;99.90
40996;DHT22;26723;57.478;12.066;2023-09-19T08:55:32;19.20;99.90
40996;DHT22;26723;57.478;12.066;2023-09-19T08:58:45;18.70;99.90
40996;DHT22;26723;57.478;12.066;2023-09-19T09:01:55;18.20;99.90
40996;DHT22;26723;57.478;12.066;2023-09-19T09:05:04;17.90;99.90
40996;DHT22;26723;57.478;12.066;2023-09-19T09:08:14;17.40;99.90
40996;DHT22;26723;57.478;12.066;2023-09-19T09:11:25;17.10;99.90
40996;DHT22;26723;57.478;12.066;2023-09-19T09:14:35;16.90;99.90
40996;DHT22;26723;57.478;12.066;2023-09-19T09:17:44;16.80;99.90
40996;DHT22;26723;57.478;12.066;2023-09-19T09:20:55;16.80;99.90
40996;DHT22;26723;57.478;12.066;2023-09-19T09:27:58;17.00;99.90
40996;DHT22;26723;57.478;12.066;2023-09-19T09:31:22;17.20;99.90
40996;DHT22;26723;57.478;12.066;2023-09-19T09:34:33;17.50;99.90
40996;DHT22;26723;57.478;12.066;2023-09-19T09:37:43;17.60;99.90
40996;DHT22;26723;57.478;12.066;2023-09-19T09:40:55;17.10;99.90
40996;DHT22;26723;57.478;12.066;2023-09-19T09:44:16;16.80;99.90
40996;DHT22;26723;57.478;12.066;2023-09-19T09:47:41;16.60;99.90
40996;DHT22;26723;57.478;12.066;2023-09-19T09:50:49;16.40;99.90
40996;DHT22;26723;57.478;12.066;2023-09-19T09:54:10;15.70;99.90
40996;DHT22;26723;57.478;12.066;2023-09-19T09:57:21;15.10;99.90
40996;DHT22;26723;57.478;12.066;2023-09-19T10:00:34;14.80;99.90
40996;DHT22;26723;57.478;12.066;2023-09-19T10:03:49;14.60;99.90
40996;DHT22;26723;57.478;12.066;2023-09-19T10:07:00;14.60;99.90
40996;DHT22;26723;57.478;12.066;2023-09-19T10:10:12;14.50;99.90
40996;DHT22;26723;57.478;12.066;2023-09-19T10:13:25;14.40;99.90
40996;DHT22;26723;57.478;12.066;2023-09-19T10:16:45;14.30;99.90
40996;DHT22;26723;57.478;12.066;2023-09-19T10:19:55;14.40;99.90
40996;DHT22;26723;57.478;12.066;2023-09-19T10:23:07;14.50;99.90
40996;DHT22;26723;57.478;12.066;2023-09-19T10:26:20;14.90;99.90
40996;DHT22;26723;57.478;12.066;2023-09-19T10:29:32;15.30;99.90
40996;DHT22;26723;57.478;12.066;2023-09-19T10:32:45;15.70;99.90
40996;DHT22;26723;57.478;12.066;2023-09-19T10:35:58;15.90;99.90
40996;DHT22;26723;57.478;12.066;2023-09-19T10:39:07;16.00;99.90
40996;DHT22;26723;57.478;12.066;2023-09-19T10:42:19;16.10;99.90
40996;DHT22;26723;57.478;12.066;2023-09-19T10:45:30;16.20;99.90
40996;DHT22;26723;57.478;12.066;2023-09-19T10:48:41;16.20;99.90
40996;DHT22;26723;57.478;12.066;2023-09-19T10:51:57;16.20;99.90
40996;DHT22;26723;57.478;12.066;2023-09-19T10:55:08;16.00;99.90
40996;DHT22;26723;57.478;12.066;2023-09-19T10:58:26;16.20;99.90
40996;DHT22;26723;57.478;12.066;2023-09-19T11:01:43;16.30;99.90
40996;DHT22;26723;57.478;12.066;2023-09-19T11:05:11;16.20;99.90
40996;DHT22;26723;57.478;12.066;2023-09-19T11:08:20;15.90;99.90
40996;DHT22;26723;57.478;12.066;2023-09-19T11:11:44;16.00;99.90
40996;DHT22;26723;57.478;12.066;2023-09-19T11:14:58;16.20;99.90
40996;DHT22;26723;57.478;12.066;2023-09-19T11:21:59;16.70;99.90
40996;DHT22;26723;57.478;12.066;2023-09-19T11:29:25;17.10;99.90
40996;DHT22;26723;57.478;12.066;2023-09-19T11:36:18;17.20;99.90
40996;DHT22;26723;57.478;12.066;2023-09-19T11:39:34;17.00;99.90
40996;DHT22;26723;57.478;12.066;2023-09-19T11:42:45;16.80;99.90
40996;DHT22;26723;57.478;12.066;2023-09-19T11:46:05;16.90;99.90
40996;DHT22;26723;57.478;12.066;2023-09-19T11:49:16;17.00;99.90
40996;DHT22;26723;57.478;12.066;2023-09-19T11:52:28;16.90;99.90
40996;DHT22;26723;57.478;12.066;2023-09-19T11:55:43;16.90;99.90
40996;DHT22;26723;57.478;12.066;2023-09-19T11:58:53;16.90;99.90
40996;DHT22;26723;57.478;12.066;2023-09-19T12:02:04;16.90;99.90
40996;DHT22;26723;57.478;12.066;2023-09-19T12:05:16;16.80;99.90
40996;DHT22;26723;57.478;12.066;2023-09-19T12:08:24;17.00;99.90
40996;DHT22;26723;57.478;12.066;2023-09-19T12:11:41;17.30;99.90
40996;DHT22;26723;57.478;12.066;2023-09-19T12:14:51;17.30;99.90
40996;DHT22;26723;57.478;12.066;2023-09-19T12:18:00;17.30;99.90
40996;DHT22;26723;57.478;12.066;2023-09-19T12:21:26;17.30;99.90
40996;DHT22;26723;57.478;12.066;2023-09-19T12:24:38;17.40;99.90
40996;DHT22;26723;57.478;12.066;2023-09-19T12:27:50;17.30;99.90
40996;DHT22;26723;57.478;12.066;2023-09-19T12:31:06;17.20;99.90
40996;DHT22;26723;57.478;12.066;2023-09-19T12:34:16;17.00;99.90
40996;DHT22;26723;57.478;12.066;2023-09-19T12:37:27;17.10;99.90
40996;DHT22;26723;57.478;12.066;2023-09-19T12:40:37;17.10;99.90
40996;DHT22;26723;57.478;12.066;2023-09-19T12:43:47;17.10;99.90
40996;DHT22;26723;57.478;12.066;2023-09-19T12:46:56;17.20;99.90
40996;DHT22;26723;57.478;12.066;2023-09-19T12:50:11;17.10;99.90
40996;DHT22;26723;57.478;12.066;2023-09-19T12:53:27;17.00;99.90
40996;DHT22;26723;57.478;12.066;2023-09-19T12:56:40;17.00;99.90
40996;DHT22;26723;57.478;12.066;2023-09-19T12:59:53;17.10;99.90
40996;DHT22;26723;57.478;12.066;2023-09-19T13:03:12;17.10;99.90
40996;DHT22;26723;57.478;12.066;2023-09-19T13:06:35;17.10;99.90
40996;DHT22;26723;57.478;12.066;2023-09-19T13:10:02;17.00;99.90
40996;DHT22;26723;57.478;12.066;2023-09-19T13:13:24;16.90;99.90
40996;DHT22;26723;57.478;12.066;2023-09-19T13:16:55;17.00;99.90
40996;DHT22;26723;57.478;12.066;2023-09-19T13:20:05;17.00;99.90
40996;DHT22;26723;57.478;12.066;2023-09-19T13:23:26;17.00;99.90
40996;DHT22;26723;57.478;12.066;2023-09-19T13:26:34;17.10;99.90
40996;DHT22;26723;57.478;12.066;2023-09-19T13:29:43;17.10;99.90
40996;DHT22;26723;57.478;12.066;2023-09-19T13:33:04;17.10;99.90
40996;DHT22;26723;57.478;12.066;2023-09-19T13:36:14;17.10;99.90
40996;DHT22;26723;57.478;12.066;2023-09-19T13:39:23;17.10;99.90
40996;DHT22;26723;57.478;12.066;2023-09-19T13:42:31;17.00;99.90
40996;DHT22;26723;57.478;12.066;2023-09-19T13:45:41;16.90;99.90
40996;DHT22;26723;57.478;12.066;2023-09-19T13:48:51;16.90;99.90
40996;DHT22;26723;57.478;12.066;2023-09-19T13:52:02;16.80;99.90
40996;DHT22;26723;57.478;12.066;2023-09-19T13:55:12;16.70;99.90
40996;DHT22;26723;57.478;12.066;2023-09-19T13:58:21;16.60;99.90
40996;DHT22;26723;57.478;12.066;2023-09-19T14:01:31;16.50;99.90
40996;DHT22;26723;57.478;12.066;2023-09-19T14:04:41;16.40;99.90
40996;DHT22;26723;57.478;12.066;2023-09-19T14:07:50;16.40;99.90
40996;DHT22;26723;57.478;12.066;2023-09-19T14:10:59;16.40;99.90
40996;DHT22;26723;57.478;12.066;2023-09-19T14:14:13;16.30;99.90
40996;DHT22;26723;57.478;12.066;2023-09-19T14:17:22;16.30;99.90
40996;DHT22;26723;57.478;12.066;2023-09-19T14:20:38;16.30;99.90
40996;DHT22;26723;57.478;12.066;2023-09-19T14:23:47;16.20;99.90
40996;DHT22;26723;57.478;12.066;2023-09-19T14:26:56;16.20;99.90
40996;DHT22;26723;57.478;12.066;2023-09-19T14:30:06;16.20;99.90
40996;DHT22;26723;57.478;12.066;2023-09-19T14:33:15;16.10;99.90
40996;DHT22;26723;57.478;12.066;2023-09-19T14:36:25;16.10;99.90
40996;DHT22;26723;57.478;12.066;2023-09-19T14:39:35;16.10;99.90
40996;DHT22;26723;57.478;12.066;2023-09-19T14:42:45;16.10;99.90
40996;DHT22;26723;57.478;12.066;2023-09-19T14:46:03;16.10;99.90
40996;DHT22;26723;57.478;12.066;2023-09-19T14:49:11;16.00;99.90
40996;DHT22;26723;57.478;12.066;2023-09-19T14:52:24;15.90;99.90
40996;DHT22;26723;57.478;12.066;2023-09-19T14:55:43;15.90;99.90
40996;DHT22;26723;57.478;12.066;2023-09-19T14:58:54;15.80;99.90
40996;DHT22;26723;57.478;12.066;2023-09-19T15:02:03;15.70;99.90
40996;DHT22;26723;57.478;12.066;2023-09-19T15:05:12;15.60;99.90
40996;DHT22;26723;57.478;12.066;2023-09-19T15:08:27;15.50;99.90
40996;DHT22;26723;57.478;12.066;2023-09-19T15:11:36;15.30;99.90
40996;DHT22;26723;57.478;12.066;2023-09-19T15:14:44;15.20;99.90
40996;DHT22;26723;57.478;12.066;2023-09-19T15:17:53;15.10;99.90
40996;DHT22;26723;57.478;12.066;2023-09-19T15:21:01;15.00;99.90
40996;DHT22;26723;57.478;12.066;2023-09-19T15:24:12;14.90;99.90
40996;DHT22;26723;57.478;12.066;2023-09-19T15:27:22;14.70;99.90
40996;DHT22;26723;57.478;12.066;2023-09-19T15:30:30;14.60;99.90
40996;DHT22;26723;57.478;12.066;2023-09-19T15:33:39;14.50;99.90
40996;DHT22;26723;57.478;12.066;2023-09-19T15:36:48;14.40;99.90
40996;DHT22;26723;57.478;12.066;2023-09-19T15:39:58;14.30;99.90
40996;DHT22;26723;57.478;12.066;2023-09-19T15:43:06;14.20;99.90
40996;DHT22;26723;57.478;12.066;2023-09-19T15:46:15;14.20;99.90
40996;DHT22;26723;57.478;12.066;2023-09-19T15:49:23;14.20;99.90
40996;DHT22;26723;57.478;12.066;2023-09-19T15:52:32;14.20;99.90
40996;DHT22;26723;57.478;12.066;2023-09-19T15:55:42;14.20;99.90
40996;DHT22;26723;57.478;12.066;2023-09-19T15:58:53;14.20;99.90
40996;DHT22;26723;57.478;12.066;2023-09-19T16:02:02;14.20;99.90
40996;DHT22;26723;57.478;12.066;2023-09-19T16:05:11;14.10;99.90
40996;DHT22;26723;57.478;12.066;2023-09-19T16:08:20;14.20;99.90
40996;DHT22;26723;57.478;12.066;2023-09-19T16:11:32;14.20;99.90
40996;DHT22;26723;57.478;12.066;2023-09-19T16:14:43;14.20;99.90
40996;DHT22;26723;57.478;12.066;2023-09-19T16:17:52;14.20;99.90
40996;DHT22;26723;57.478;12.066;2023-09-19T16:21:01;14.20;99.90
40996;DHT22;26723;57.478;12.066;2023-09-19T16:24:10;14.20;99.90
40996;DHT22;26723;57.478;12.066;2023-09-19T16:27:20;14.30;99.90
40996;DHT22;26723;57.478;12.066;2023-09-19T16:30:31;14.30;99.90
40996;DHT22;26723;57.478;12.066;2023-09-19T16:33:42;14.30;99.90
40996;DHT22;26723;57.478;12.066;2023-09-19T16:36:51;14.30;99.90
40996;DHT22;26723;57.478;12.066;2023-09-19T16:39:59;14.30;99.90
40996;DHT22;26723;57.478;12.066;2023-09-19T16:43:09;14.30;99.90
40996;DHT22;26723;57.478;12.066;2023-09-19T16:46:19;14.30;99.90
40996;DHT22;26723;57.478;12.066;2023-09-19T16:49:27;14.20;99.90
40996;DHT22;26723;57.478;12.066;2023-09-19T16:52:36;14.20;99.90
40996;DHT22;26723;57.478;12.066;2023-09-19T16:55:46;14.20;99.90
40996;DHT22;26723;57.478;12.066;2023-09-19T16:58:56;14.20;99.90
40996;DHT22;26723;57.478;12.066;2023-09-19T17:02:09;14.20;99.90
40996;DHT22;26723;57.478;12.066;2023-09-19T17:05:17;14.20;99.90
40996;DHT22;26723;57.478;12.066;2023-09-19T17:08:27;14.20;99.90
40996;DHT22;26723;57.478;12.066;2023-09-19T17:11:36;14.10;99.90
40996;DHT22;26723;57.478;12.066;2023-09-19T17:14:46;14.10;99.90
40996;DHT22;26723;57.478;12.066;2023-09-19T17:17:55;14.10;99.90
40996;DHT22;26723;57.478;12.066;2023-09-19T17:21:04;14.10;99.90
40996;DHT22;26723;57.478;12.066;2023-09-19T17:24:15;14.10;99.90
40996;DHT22;26723;57.478;12.066;2023-09-19T17:27:24;14.20;99.90
40996;DHT22;26723;57.478;12.066;2023-09-19T17:30:36;14.30;99.90
40996;DHT22;26723;57.478;12.066;2023-09-19T17:33:47;14.30;99.90
40996;DHT22;26723;57.478;12.066;2023-09-19T17:36:58;14.40;99.90
40996;DHT22;26723;57.478;12.066;2023-09-19T17:40:08;14.50;99.90
40996;DHT22;26723;57.478;12.066;2023-09-19T17:43:17;14.70;99.90
40996;DHT22;26723;57.478;12.066;2023-09-19T17:46:27;14.80;99.90
40996;DHT22;26723;57.478;12.066;2023-09-19T17:49:37;14.80;99.90
40996;DHT22;26723;57.478;12.066;2023-09-19T17:52:46;14.90;99.90
40996;DHT22;26723;57.478;12.066;2023-09-19T17:55:56;14.90;99.90
40996;DHT22;26723;57.478;12.066;2023-09-19T17:59:05;14.80;99.90
40996;DHT22;26723;57.478;12.066;2023-09-19T18:02:15;14.90;99.90
40996;DHT22;26723;57.478;12.066;2023-09-19T18:05:23;15.00;99.90
40996;DHT22;26723;57.478;12.066;2023-09-19T18:08:33;15.10;99.90
40996;DHT22;26723;57.478;12.066;2023-09-19T18:11:42;15.10;99.90
40996;DHT22;26723;57.478;12.066;2023-09-19T18:14:51;15.10;99.90
40996;DHT22;26723;57.478;12.066;2023-09-19T18:18:01;15.10;99.90
40996;DHT22;26723;57.478;12.066;2023-09-19T18:21:09;15.10;99.90
40996;DHT22;26723;57.478;12.066;2023-09-19T18:24:19;15.10;99.90
40996;DHT22;26723;57.478;12.066;2023-09-19T18:27:27;15.20;99.90
40996;DHT22;26723;57.478;12.066;2023-09-19T18:30:38;15.30;99.90
40996;DHT22;26723;57.478;12.066;2023-09-19T18:33:48;15.30;99.90
40996;DHT22;26723;57.478;12.066;2023-09-19T18:36:57;15.40;99.90
40996;DHT22;26723;57.478;12.066;2023-09-19T18:40:07;15.50;99.90
40996;DHT22;26723;57.478;12.066;2023-09-19T18:43:17;15.60;99.90
40996;DHT22;26723;57.478;12.066;2023-09-19T18:46:27;15.60;99.90
40996;DHT22;26723;57.478;12.066;2023-09-19T18:49:39;15.60;99.90
40996;DHT22;26723;57.478;12.066;2023-09-19T18:52:49;15.70;99.90
40996;DHT22;26723;57.478;12.066;2023-09-19T18:56:05;15.80;99.90
40996;DHT22;26723;57.478;12.066;2023-09-19T18:59:15;15.80;99.90
40996;DHT22;26723;57.478;12.066;2023-09-19T19:02:23;15.90;99.90
40996;DHT22;26723;57.478;12.066;2023-09-19T19:05:34;15.90;99.90
40996;DHT22;26723;57.478;12.066;2023-09-19T19:08:45;16.00;99.90
40996;DHT22;26723;57.478;12.066;2023-09-19T19:11:54;16.00;99.90
40996;DHT22;26723;57.478;12.066;2023-09-19T19:15:03;16.10;99.90
40996;DHT22;26723;57.478;12.066;2023-09-19T19:18:12;16.20;99.90
40996;DHT22;26723;57.478;12.066;2023-09-19T19:21:22;16.20;99.90
40996;DHT22;26723;57.478;12.066;2023-09-19T19:24:31;16.30;99.90
40996;DHT22;26723;57.478;12.066;2023-09-19T19:27:40;16.40;99.90
40996;DHT22;26723;57.478;12.066;2023-09-19T19:30:49;16.30;99.90
40996;DHT22;26723;57.478;12.066;2023-09-19T19:33:58;16.40;99.90
40996;DHT22;26723;57.478;12.066;2023-09-19T19:37:08;16.40;99.90
40996;DHT22;26723;57.478;12.066;2023-09-19T19:40:19;16.40;99.90
40996;DHT22;26723;57.478;12.066;2023-09-19T19:43:28;16.50;99.90
40996;DHT22;26723;57.478;12.066;2023-09-19T19:46:36;16.50;99.90
40996;DHT22;26723;57.478;12.066;2023-09-19T19:49:45;16.60;99.90
40996;DHT22;26723;57.478;12.066;2023-09-19T19:52:56;16.60;99.90
40996;DHT22;26723;57.478;12.066;2023-09-19T19:56:05;16.70;99.90
40996;DHT22;26723;57.478;12.066;2023-09-19T19:59:14;16.70;99.90
40996;DHT22;26723;57.478;12.066;2023-09-19T20:02:25;16.70;99.90